Angela K — WDE9722 — position and weather

sailwx.info

Track history (hours):
 
Tides and Currents Weather Stations Pressure Air Temp Water Temp Dewpoint Dewpoint Depression Visibility Wind Speed Wind Dir Waves Ship Positions

Angela K

Owner: SCF Waxler Marine LLC, St. Rose, LA. More information available from US FCC via Universal Licensing System and Coast Guard Vessel Documentation Center.

Last reported at 2017-Nov-19 00:48 UTC. Time now 2017-Nov-19 21:53 UTC.
Position N 32°38' W 091°09'.

Length 57 m.

Type: Cargo ship. MMSI: 367420490.

Date/timePositionNaut miles runAvg speedWind from/ knotsBaromVisibWave heightAir tempDewpointWater temp
2017-Nov-19 00:48N 32°38' W 091°09'1 3.1
2017-Nov-19 00:30N 32°37' W 091°09'1 2.1
2017-Nov-19 00:00N 32°36' W 091°09'1 2.6
2017-Nov-18 23:30N 32°35' W 091°08'2 3.6
2017-Nov-18 23:00N 32°34' W 091°06'2 3.7
2017-Nov-18 22:30N 32°32' W 091°06'2 4.8
2017-Nov-18 22:00N 32°30' W 091°07'2 4.5
2017-Nov-18 21:30N 32°28' W 091°06'3 5.1
2017-Nov-18 21:00N 32°26' W 091°04'2 3.9
2017-Nov-18 20:30N 32°26' W 091°02'2 3.9
2017-Nov-18 20:00N 32°25' W 090°60'2 3.4
2017-Nov-18 19:30N 32°23' W 090°60'2 3.3
2017-Nov-18 19:00N 32°21' W 090°60'2 4.3
2017-Nov-18 18:30N 32°21' W 090°57'2 4.0
2017-Nov-18 18:00N 32°21' W 090°55'2 3.5
2017-Nov-18 17:30N 32°19' W 090°54'1 2.3
2017-Nov-18 17:00N 32°18' W 090°55'0 0.0
2017-Nov-18 16:30N 32°18' W 090°55'0 0.0
2017-Nov-18 16:00N 32°18' W 090°55'0 0.0
2017-Nov-18 15:30N 32°18' W 090°55'0 0.0
2017-Nov-18 15:00N 32°18' W 090°55'0 0.0
2017-Nov-18 14:30N 32°18' W 090°55'0 0.0
2017-Nov-18 14:00N 32°18' W 090°55'0 0.0
2017-Nov-18 13:30N 32°18' W 090°55'0 0.0
2017-Nov-18 13:00N 32°18' W 090°55'0 0.0
2017-Nov-18 12:30N 32°18' W 090°55'0 0.0
2017-Nov-18 12:00N 32°18' W 090°55'0 0.0
2017-Nov-18 11:30N 32°18' W 090°55'0 0.0
2017-Nov-18 11:00N 32°18' W 090°55'0 0.7
2017-Nov-18 10:30N 32°18' W 090°55'2 4.5
2017-Nov-18 10:00N 32°17' W 090°57'2 4.5
2017-Nov-18 09:30N 32°15' W 090°59'2 4.3
2017-Nov-18 09:00N 32°13' W 090°59'2 4.9
2017-Nov-18 08:30N 32°10' W 091°00'2 4.7
2017-Nov-18 08:00N 32°08' W 091°01'2 3.8
2017-Nov-18 07:30N 32°07' W 091°03'3 4.2
2017-Nov-18 06:51N 32°08' W 091°06'1 4.0
2017-Nov-18 06:30N 32°07' W 091°06'3 0.8
2017-Nov-18 03:09N 32°05' W 091°04'2 3.8
2017-Nov-18 02:39N 32°03' W 091°03'1 4.8
2017-Nov-18 02:30N 32°03' W 091°04'3 4.9
2017-Nov-18 02:00N 32°00' W 091°05'6 4.4
2017-Nov-18 00:42N 31°58' W 091°11'  
2017-Nov-09 22:49N 31°60' W 091°05'2 7.3
2017-Nov-09 22:30N 32°02' W 091°04'5 6.2
2017-Nov-09 21:46N 32°06' W 091°06'1 5.0
2017-Nov-09 21:29N 32°07' W 091°07'3 4.2
2017-Nov-09 20:50N 32°08' W 091°03'2 6.8
2017-Nov-09 20:30N 32°08' W 091°01'4 7.5
2017-Nov-09 20:00N 32°11' W 090°60'4 7.7
2017-Nov-09 19:30N 32°15' W 090°59'4 7.5
2017-Nov-09 19:00N 32°18' W 090°56'3 6.1
2017-Nov-09 18:30N 32°21' W 090°55'4 7.2
2017-Nov-09 18:00N 32°21' W 090°59'3 5.9
2017-Nov-09 17:30N 32°24' W 090°59'3 7.0
2017-Nov-09 17:00N 32°26' W 091°03'4 7.3
2017-Nov-09 16:30N 32°28' W 091°06'5 7.3
2017-Nov-09 15:48N 32°33' W 091°06'2 7.5
2017-Nov-09 15:30N 32°35' W 091°07'  
Track history (hours):
 
Tides and Currents Weather Stations Pressure Air Temp Water Temp Dewpoint Dewpoint Depression Visibility Wind Speed Wind Dir Waves Ship Positions

Angela K

Owner: SCF Waxler Marine LLC, St. Rose, LA. More information available from US FCC via Universal Licensing System and Coast Guard Vessel Documentation Center.

Last reported at 2017-Nov-19 00:48 UTC. Time now 2017-Nov-19 21:53 UTC.
Position N 32°38' W 091°09'.

Length 57 m.

Type: Cargo ship. MMSI: 367420490.

Date/timePositionNaut miles runAvg speedWind from/ knotsBaromVisibWave heightAir tempDewpointWater temp
2017-Nov-19 00:48N 32°38' W 091°09'1 3.1
2017-Nov-19 00:30N 32°37' W 091°09'1 2.1
2017-Nov-19 00:00N 32°36' W 091°09'1 2.6
2017-Nov-18 23:30N 32°35' W 091°08'2 3.6
2017-Nov-18 23:00N 32°34' W 091°06'2 3.7
2017-Nov-18 22:30N 32°32' W 091°06'2 4.8
2017-Nov-18 22:00N 32°30' W 091°07'2 4.5
2017-Nov-18 21:30N 32°28' W 091°06'3 5.1
2017-Nov-18 21:00N 32°26' W 091°04'2 3.9
2017-Nov-18 20:30N 32°26' W 091°02'2 3.9
2017-Nov-18 20:00N 32°25' W 090°60'2 3.4
2017-Nov-18 19:30N 32°23' W 090°60'2 3.3
2017-Nov-18 19:00N 32°21' W 090°60'2 4.3
2017-Nov-18 18:30N 32°21' W 090°57'2 4.0
2017-Nov-18 18:00N 32°21' W 090°55'2 3.5
2017-Nov-18 17:30N 32°19' W 090°54'1 2.3
2017-Nov-18 17:00N 32°18' W 090°55'0 0.0
2017-Nov-18 16:30N 32°18' W 090°55'0 0.0
2017-Nov-18 16:00N 32°18' W 090°55'0 0.0
2017-Nov-18 15:30N 32°18' W 090°55'0 0.0
2017-Nov-18 15:00N 32°18' W 090°55'0 0.0
2017-Nov-18 14:30N 32°18' W 090°55'0 0.0
2017-Nov-18 14:00N 32°18' W 090°55'0 0.0
2017-Nov-18 13:30N 32°18' W 090°55'0 0.0
2017-Nov-18 13:00N 32°18' W 090°55'0 0.0
2017-Nov-18 12:30N 32°18' W 090°55'0 0.0
2017-Nov-18 12:00N 32°18' W 090°55'0 0.0
2017-Nov-18 11:30N 32°18' W 090°55'0 0.0
2017-Nov-18 11:00N 32°18' W 090°55'0 0.7
2017-Nov-18 10:30N 32°18' W 090°55'2 4.5
2017-Nov-18 10:00N 32°17' W 090°57'2 4.5
2017-Nov-18 09:30N 32°15' W 090°59'2 4.3
2017-Nov-18 09:00N 32°13' W 090°59'2 4.9
2017-Nov-18 08:30N 32°10' W 091°00'2 4.7
2017-Nov-18 08:00N 32°08' W 091°01'2 3.8
2017-Nov-18 07:30N 32°07' W 091°03'3 4.2
2017-Nov-18 06:51N 32°08' W 091°06'1 4.0
2017-Nov-18 06:30N 32°07' W 091°06'3 0.8
2017-Nov-18 03:09N 32°05' W 091°04'2 3.8
2017-Nov-18 02:39N 32°03' W 091°03'1 4.8
2017-Nov-18 02:30N 32°03' W 091°04'3 4.9
2017-Nov-18 02:00N 32°00' W 091°05'6 4.4
2017-Nov-18 00:42N 31°58' W 091°11'  
2017-Nov-09 22:49N 31°60' W 091°05'2 7.3
2017-Nov-09 22:30N 32°02' W 091°04'5 6.2
2017-Nov-09 21:46N 32°06' W 091°06'1 5.0
2017-Nov-09 21:29N 32°07' W 091°07'3 4.2
2017-Nov-09 20:50N 32°08' W 091°03'2 6.8
2017-Nov-09 20:30N 32°08' W 091°01'4 7.5
2017-Nov-09 20:00N 32°11' W 090°60'4 7.7
2017-Nov-09 19:30N 32°15' W 090°59'4 7.5
2017-Nov-09 19:00N 32°18' W 090°56'3 6.1
2017-Nov-09 18:30N 32°21' W 090°55'4 7.2
2017-Nov-09 18:00N 32°21' W 090°59'3 5.9
2017-Nov-09 17:30N 32°24' W 090°59'3 7.0
2017-Nov-09 17:00N 32°26' W 091°03'4 7.3
2017-Nov-09 16:30N 32°28' W 091°06'5 7.3
2017-Nov-09 15:48N 32°33' W 091°06'2 7.5
2017-Nov-09 15:30N 32°35' W 091°07'  

Dump ship's entire track history